sensor_id;sensor_type;location;lat;lon;timestamp;pressure;altitude;pressure_sealevel;temperature;humidity
54600;BME280;40500;51.084;16.958;2023-04-25T00:00:44;99371.39;;;9.24;100.00
54600;BME280;40500;51.084;16.958;2023-04-25T00:03:14;99370.35;;;9.24;100.00
54600;BME280;40500;51.084;16.958;2023-04-25T00:05:45;99372.13;;;9.23;100.00
54600;BME280;40500;51.084;16.958;2023-04-25T00:08:17;99370.06;;;9.22;100.00
54600;BME280;40500;51.084;16.958;2023-04-25T00:10:47;99372.55;;;9.20;100.00
54600;BME280;40500;51.084;16.958;2023-04-25T00:13:18;99369.46;;;9.18;100.00
54600;BME280;40500;51.084;16.958;2023-04-25T00:15:49;99374.02;;;9.17;100.00
54600;BME280;40500;51.084;16.958;2023-04-25T00:18:21;99371.95;;;9.17;100.00
54600;BME280;40500;51.084;16.958;2023-04-25T00:20:51;99373.56;;;9.15;100.00
54600;BME280;40500;51.084;16.958;2023-04-25T00:23:21;99377.30;;;9.13;100.00
54600;BME280;40500;51.084;16.958;2023-04-25T00:25:53;99374.91;;;9.11;100.00
54600;BME280;40500;51.084;16.958;2023-04-25T00:28:23;99375.98;;;9.09;100.00
54600;BME280;40500;51.084;16.958;2023-04-25T00:30:54;99376.02;;;9.08;100.00
54600;BME280;40500;51.084;16.958;2023-04-25T00:33:24;99376.75;;;9.06;100.00
54600;BME280;40500;51.084;16.958;2023-04-25T00:35:55;99376.28;;;9.04;100.00
54600;BME280;40500;51.084;16.958;2023-04-25T00:38:26;99373.57;;;9.01;100.00
54600;BME280;40500;51.084;16.958;2023-04-25T00:40:56;99373.96;;;9.00;100.00
54600;BME280;40500;51.084;16.958;2023-04-25T00:43:28;99380.48;;;8.98;100.00
54600;BME280;40500;51.084;16.958;2023-04-25T00:46:00;99382.42;;;8.97;100.00
54600;BME280;40500;51.084;16.958;2023-04-25T00:48:31;99385.80;;;8.94;100.00
54600;BME280;40500;51.084;16.958;2023-04-25T00:51:01;99384.99;;;8.92;100.00
54600;BME280;40500;51.084;16.958;2023-04-25T00:53:32;99386.27;;;8.89;100.00
54600;BME280;40500;51.084;16.958;2023-04-25T00:56:02;99381.09;;;8.87;100.00
54600;BME280;40500;51.084;16.958;2023-04-25T00:58:33;99384.98;;;8.85;100.00
54600;BME280;40500;51.084;16.958;2023-04-25T01:01:04;99384.52;;;8.82;100.00
54600;BME280;40500;51.084;16.958;2023-04-25T01:03:38;99385.31;;;8.79;100.00
54600;BME280;40500;51.084;16.958;2023-04-25T01:06:11;99388.66;;;8.78;100.00
54600;BME280;40500;51.084;16.958;2023-04-25T01:08:41;99386.47;;;8.75;100.00
54600;BME280;40500;51.084;16.958;2023-04-25T01:11:12;99389.30;;;8.73;100.00
54600;BME280;40500;51.084;16.958;2023-04-25T01:13:43;99391.11;;;8.70;100.00
54600;BME280;40500;51.084;16.958;2023-04-25T01:16:14;99391.34;;;8.68;100.00
54600;BME280;40500;51.084;16.958;2023-04-25T01:18:46;99391.75;;;8.65;100.00
54600;BME280;40500;51.084;16.958;2023-04-25T01:21:17;99390.89;;;8.65;100.00
54600;BME280;40500;51.084;16.958;2023-04-25T01:23:49;99390.59;;;8.63;100.00
54600;BME280;40500;51.084;16.958;2023-04-25T01:26:20;99389.58;;;8.62;100.00
54600;BME280;40500;51.084;16.958;2023-04-25T01:28:51;99392.74;;;8.60;100.00
54600;BME280;40500;51.084;16.958;2023-04-25T01:31:22;99394.89;;;8.58;100.00
54600;BME280;40500;51.084;16.958;2023-04-25T01:33:53;99395.10;;;8.57;100.00
54600;BME280;40500;51.084;16.958;2023-04-25T01:36:23;99389.41;;;8.54;100.00
54600;BME280;40500;51.084;16.958;2023-04-25T01:38:54;99394.84;;;8.53;100.00
54600;BME280;40500;51.084;16.958;2023-04-25T01:41:25;99393.86;;;8.51;100.00
54600;BME280;40500;51.084;16.958;2023-04-25T01:43:56;99391.47;;;8.49;100.00
54600;BME280;40500;51.084;16.958;2023-04-25T01:46:26;99392.54;;;8.47;100.00
54600;BME280;40500;51.084;16.958;2023-04-25T01:48:57;99389.45;;;8.45;100.00
54600;BME280;40500;51.084;16.958;2023-04-25T01:51:28;99390.05;;;8.42;100.00
54600;BME280;40500;51.084;16.958;2023-04-25T01:53:59;99386.59;;;8.39;100.00
54600;BME280;40500;51.084;16.958;2023-04-25T01:56:33;99390.13;;;8.37;100.00
54600;BME280;40500;51.084;16.958;2023-04-25T01:59:08;99384.46;;;8.33;100.00
54600;BME280;40500;51.084;16.958;2023-04-25T02:01:51;99387.15;;;8.30;100.00
54600;BME280;40500;51.084;16.958;2023-04-25T02:04:25;99389.32;;;8.26;100.00
54600;BME280;40500;51.084;16.958;2023-04-25T02:06:56;99393.95;;;8.22;100.00
54600;BME280;40500;51.084;16.958;2023-04-25T02:09:34;99400.98;;;8.20;100.00
54600;BME280;40500;51.084;16.958;2023-04-25T02:12:09;99399.98;;;8.18;100.00
54600;BME280;40500;51.084;16.958;2023-04-25T02:15:05;99404.77;;;8.14;100.00
54600;BME280;40500;51.084;16.958;2023-04-25T02:17:43;99404.15;;;8.10;100.00
54600;BME280;40500;51.084;16.958;2023-04-25T02:20:14;99404.20;;;8.08;100.00
54600;BME280;40500;51.084;16.958;2023-04-25T02:22:46;99400.78;;;8.05;100.00
54600;BME280;40500;51.084;16.958;2023-04-25T02:25:17;99401.88;;;8.03;100.00
54600;BME280;40500;51.084;16.958;2023-04-25T02:27:49;99395.84;;;8.00;100.00
54600;BME280;40500;51.084;16.958;2023-04-25T02:30:20;99398.50;;;7.98;100.00
54600;BME280;40500;51.084;16.958;2023-04-25T02:32:51;99398.36;;;7.95;100.00
54600;BME280;40500;51.084;16.958;2023-04-25T02:35:22;99396.48;;;7.94;100.00
54600;BME280;40500;51.084;16.958;2023-04-25T02:37:55;99396.87;;;7.92;100.00
54600;BME280;40500;51.084;16.958;2023-04-25T02:40:26;99400.05;;;7.90;100.00
54600;BME280;40500;51.084;16.958;2023-04-25T02:42:56;99399.92;;;7.88;100.00
54600;BME280;40500;51.084;16.958;2023-04-25T02:45:28;99399.42;;;7.87;100.00
54600;BME280;40500;51.084;16.958;2023-04-25T02:47:58;99402.25;;;7.84;100.00
54600;BME280;40500;51.084;16.958;2023-04-25T02:50:29;99400.08;;;7.80;100.00
54600;BME280;40500;51.084;16.958;2023-04-25T02:52:59;99406.39;;;7.78;100.00
54600;BME280;40500;51.084;16.958;2023-04-25T02:55:35;99406.45;;;7.75;100.00
54600;BME280;40500;51.084;16.958;2023-04-25T02:58:06;99401.97;;;7.73;100.00
54600;BME280;40500;51.084;16.958;2023-04-25T03:00:45;99401.80;;;7.72;100.00
54600;BME280;40500;51.084;16.958;2023-04-25T03:03:17;99398.19;;;7.71;100.00
54600;BME280;40500;51.084;16.958;2023-04-25T03:05:51;99397.70;;;7.69;100.00
54600;BME280;40500;51.084;16.958;2023-04-25T03:08:27;99394.95;;;7.68;100.00
54600;BME280;40500;51.084;16.958;2023-04-25T03:11:02;99388.36;;;7.65;100.00
54600;BME280;40500;51.084;16.958;2023-04-25T03:13:32;99390.31;;;7.64;100.00
54600;BME280;40500;51.084;16.958;2023-04-25T03:16:03;99392.27;;;7.62;100.00
54600;BME280;40500;51.084;16.958;2023-04-25T03:18:33;99389.70;;;7.60;100.00
54600;BME280;40500;51.084;16.958;2023-04-25T03:21:04;99387.98;;;7.58;100.00
54600;BME280;40500;51.084;16.958;2023-04-25T03:23:35;99389.94;;;7.56;100.00
54600;BME280;40500;51.084;16.958;2023-04-25T03:26:05;99390.48;;;7.55;100.00
54600;BME280;40500;51.084;16.958;2023-04-25T03:28:35;99390.36;;;7.51;100.00
54600;BME280;40500;51.084;16.958;2023-04-25T03:31:06;99394.23;;;7.50;100.00
54600;BME280;40500;51.084;16.958;2023-04-25T03:33:36;99394.98;;;7.48;100.00
54600;BME280;40500;51.084;16.958;2023-04-25T03:36:08;99396.95;;;7.45;100.00
54600;BME280;40500;51.084;16.958;2023-04-25T03:38:40;99401.66;;;7.44;100.00
54600;BME280;40500;51.084;16.958;2023-04-25T03:41:11;99406.21;;;7.43;100.00
54600;BME280;40500;51.084;16.958;2023-04-25T03:43:45;99403.98;;;7.42;100.00
54600;BME280;40500;51.084;16.958;2023-04-25T03:46:17;99407.16;;;7.39;100.00
54600;BME280;40500;51.084;16.958;2023-04-25T03:48:49;99407.70;;;7.39;100.00
54600;BME280;40500;51.084;16.958;2023-04-25T03:51:29;99406.30;;;7.39;100.00
54600;BME280;40500;51.084;16.958;2023-04-25T03:54:00;99409.09;;;7.38;100.00
54600;BME280;40500;51.084;16.958;2023-04-25T03:56:33;99407.34;;;7.39;100.00
54600;BME280;40500;51.084;16.958;2023-04-25T03:59:11;99410.83;;;7.39;100.00
54600;BME280;40500;51.084;16.958;2023-04-25T04:01:41;99416.59;;;7.38;100.00
54600;BME280;40500;51.084;16.958;2023-04-25T04:04:12;99417.27;;;7.39;100.00
54600;BME280;40500;51.084;16.958;2023-04-25T04:06:43;99422.33;;;7.39;100.00
54600;BME280;40500;51.084;16.958;2023-04-25T04:09:19;99419.88;;;7.39;100.00
54600;BME280;40500;51.084;16.958;2023-04-25T04:11:50;99420.58;;;7.39;100.00
54600;BME280;40500;51.084;16.958;2023-04-25T04:14:21;99426.18;;;7.38;100.00
54600;BME280;40500;51.084;16.958;2023-04-25T04:16:53;99425.11;;;7.39;100.00
54600;BME280;40500;51.084;16.958;2023-04-25T04:19:24;99426.81;;;7.41;100.00
54600;BME280;40500;51.084;16.958;2023-04-25T04:22:06;99429.75;;;7.42;100.00
54600;BME280;40500;51.084;16.958;2023-04-25T04:24:36;99431.66;;;7.42;100.00
54600;BME280;40500;51.084;16.958;2023-04-25T04:27:09;99434.78;;;7.43;100.00
54600;BME280;40500;51.084;16.958;2023-04-25T04:29:59;99437.73;;;7.44;100.00
54600;BME280;40500;51.084;16.958;2023-04-25T04:32:35;99438.23;;;7.45;100.00
54600;BME280;40500;51.084;16.958;2023-04-25T04:35:08;99439.08;;;7.46;100.00
54600;BME280;40500;51.084;16.958;2023-04-25T04:37:40;99439.05;;;7.48;100.00
54600;BME280;40500;51.084;16.958;2023-04-25T04:40:14;99441.06;;;7.51;100.00
54600;BME280;40500;51.084;16.958;2023-04-25T04:42:55;99443.95;;;7.56;100.00
54600;BME280;40500;51.084;16.958;2023-04-25T04:45:45;99438.98;;;7.61;100.00
54600;BME280;40500;51.084;16.958;2023-04-25T04:48:33;99443.59;;;7.66;100.00
54600;BME280;40500;51.084;16.958;2023-04-25T04:51:22;99443.31;;;7.71;100.00
54600;BME280;40500;51.084;16.958;2023-04-25T04:54:11;99447.23;;;7.76;100.00
54600;BME280;40500;51.084;16.958;2023-04-25T04:56:52;99443.82;;;7.81;100.00
54600;BME280;40500;51.084;16.958;2023-04-25T04:59:37;99442.32;;;7.85;100.00
54600;BME280;40500;51.084;16.958;2023-04-25T05:02:15;99442.37;;;7.92;100.00
54600;BME280;40500;51.084;16.958;2023-04-25T05:05:21;99442.54;;;8.01;100.00
54600;BME280;40500;51.084;16.958;2023-04-25T05:08:12;99441.17;;;8.08;100.00
54600;BME280;40500;51.084;16.958;2023-04-25T05:10:55;99444.37;;;8.13;100.00
54600;BME280;40500;51.084;16.958;2023-04-25T05:13:35;99443.39;;;8.18;100.00
54600;BME280;40500;51.084;16.958;2023-04-25T05:16:24;99440.39;;;8.20;100.00
54600;BME280;40500;51.084;16.958;2023-04-25T05:19:15;99442.27;;;8.22;100.00
54600;BME280;40500;51.084;16.958;2023-04-25T05:21:53;99435.55;;;8.26;100.00
54600;BME280;40500;51.084;16.958;2023-04-25T05:24:32;99441.37;;;8.30;100.00
54600;BME280;40500;51.084;16.958;2023-04-25T05:27:21;99440.95;;;8.35;100.00
54600;BME280;40500;51.084;16.958;2023-04-25T05:30:13;99438.40;;;8.39;100.00
54600;BME280;40500;51.084;16.958;2023-04-25T05:32:59;99435.85;;;8.45;100.00
54600;BME280;40500;51.084;16.958;2023-04-25T05:35:30;99435.73;;;8.50;100.00
54600;BME280;40500;51.084;16.958;2023-04-25T05:38:02;99433.53;;;8.55;100.00
54600;BME280;40500;51.084;16.958;2023-04-25T05:40:55;99433.89;;;8.62;100.00
54600;BME280;40500;51.084;16.958;2023-04-25T05:43:42;99432.15;;;8.69;100.00
54600;BME280;40500;51.084;16.958;2023-04-25T05:46:25;99435.02;;;8.74;100.00
54600;BME280;40500;51.084;16.958;2023-04-25T05:49:20;99435.45;;;8.78;100.00
54600;BME280;40500;51.084;16.958;2023-04-25T05:52:20;99435.27;;;8.85;100.00
54600;BME280;40500;51.084;16.958;2023-04-25T05:55:05;99438.05;;;8.92;100.00
54600;BME280;40500;51.084;16.958;2023-04-25T05:57:35;99437.34;;;9.00;100.00
54600;BME280;40500;51.084;16.958;2023-04-25T06:00:10;99440.89;;;9.11;100.00
54600;BME280;40500;51.084;16.958;2023-04-25T06:02:43;99436.92;;;9.23;100.00
54600;BME280;40500;51.084;16.958;2023-04-25T06:05:16;99436.89;;;9.32;100.00
54600;BME280;40500;51.084;16.958;2023-04-25T06:07:47;99437.59;;;9.44;100.00
54600;BME280;40500;51.084;16.958;2023-04-25T06:10:18;99434.60;;;9.58;100.00
54600;BME280;40500;51.084;16.958;2023-04-25T06:12:49;99431.86;;;9.68;100.00
54600;BME280;40500;51.084;16.958;2023-04-25T06:15:20;99428.77;;;9.73;100.00
54600;BME280;40500;51.084;16.958;2023-04-25T06:17:55;99431.10;;;9.77;100.00
54600;BME280;40500;51.084;16.958;2023-04-25T06:20:26;99430.81;;;9.81;100.00
54600;BME280;40500;51.084;16.958;2023-04-25T06:22:59;99432.27;;;9.85;100.00
54600;BME280;40500;51.084;16.958;2023-04-25T06:25:45;99426.77;;;9.94;100.00
54600;BME280;40500;51.084;16.958;2023-04-25T06:28:16;99429.11;;;9.98;100.00
54600;BME280;40500;51.084;16.958;2023-04-25T06:30:47;99427.51;;;9.99;100.00
54600;BME280;40500;51.084;16.958;2023-04-25T06:33:19;99425.91;;;10.00;100.00
54600;BME280;40500;51.084;16.958;2023-04-25T06:35:51;99427.12;;;10.00;100.00
54600;BME280;40500;51.084;16.958;2023-04-25T06:38:25;99425.93;;;10.04;100.00
54600;BME280;40500;51.084;16.958;2023-04-25T06:40:57;99428.98;;;10.08;100.00
54600;BME280;40500;51.084;16.958;2023-04-25T06:43:30;99426.88;;;10.20;100.00
54600;BME280;40500;51.084;16.958;2023-04-25T06:46:05;99429.40;;;10.30;100.00
54600;BME280;40500;51.084;16.958;2023-04-25T06:48:41;99420.07;;;10.38;100.00
54600;BME280;40500;51.084;16.958;2023-04-25T06:51:11;99423.12;;;10.47;100.00
54600;BME280;40500;51.084;16.958;2023-04-25T06:53:43;99421.02;;;10.58;100.00
54600;BME280;40500;51.084;16.958;2023-04-25T06:56:20;99428.02;;;10.69;100.00
54600;BME280;40500;51.084;16.958;2023-04-25T06:58:58;99420.09;;;10.76;100.00
54600;BME280;40500;51.084;16.958;2023-04-25T07:01:32;99417.22;;;10.84;100.00
54600;BME280;40500;51.084;16.958;2023-04-25T07:04:05;99417.75;;;10.88;100.00
54600;BME280;40500;51.084;16.958;2023-04-25T07:06:39;99412.92;;;10.92;100.00
54600;BME280;40500;51.084;16.958;2023-04-25T07:09:13;99411.44;;;10.94;100.00
54600;BME280;40500;51.084;16.958;2023-04-25T07:11:44;99408.21;;;10.96;100.00
54600;BME280;40500;51.084;16.958;2023-04-25T07:14:15;99404.09;;;10.94;100.00
54600;BME280;40500;51.084;16.958;2023-04-25T07:16:45;99404.51;;;10.92;100.00
54600;BME280;40500;51.084;16.958;2023-04-25T07:19:16;99403.80;;;10.87;100.00
54600;BME280;40500;51.084;16.958;2023-04-25T07:21:46;99407.03;;;10.85;100.00
54600;BME280;40500;51.084;16.958;2023-04-25T07:24:17;99412.65;;;10.79;100.00
54600;BME280;40500;51.084;16.958;2023-04-25T07:26:48;99415.84;;;10.78;100.00
54600;BME280;40500;51.084;16.958;2023-04-25T07:29:27;99418.00;;;10.76;100.00
54600;BME280;40500;51.084;16.958;2023-04-25T07:32:00;99420.11;;;10.71;100.00
54600;BME280;40500;51.084;16.958;2023-04-25T07:34:31;99416.92;;;10.66;100.00
54600;BME280;40500;51.084;16.958;2023-04-25T07:37:02;99417.92;;;10.67;100.00
54600;BME280;40500;51.084;16.958;2023-04-25T07:39:37;99416.05;;;10.71;100.00
54600;BME280;40500;51.084;16.958;2023-04-25T07:42:08;99410.95;;;10.77;100.00
54600;BME280;40500;51.084;16.958;2023-04-25T07:44:41;99408.15;;;10.83;100.00
54600;BME280;40500;51.084;16.958;2023-04-25T07:47:13;99409.10;;;10.91;100.00
54600;BME280;40500;51.084;16.958;2023-04-25T07:49:43;99404.44;;;11.00;100.00
54600;BME280;40500;51.084;16.958;2023-04-25T07:52:14;99405.27;;;11.06;100.00
54600;BME280;40500;51.084;16.958;2023-04-25T07:54:49;99403.79;;;11.14;100.00
54600;BME280;40500;51.084;16.958;2023-04-25T07:57:25;99407.00;;;11.17;100.00
54600;BME280;40500;51.084;16.958;2023-04-25T07:59:56;99409.47;;;11.22;100.00
54600;BME280;40500;51.084;16.958;2023-04-25T08:02:28;99406.42;;;11.29;100.00
54600;BME280;40500;51.084;16.958;2023-04-25T08:04:58;99403.93;;;11.45;100.00
54600;BME280;40500;51.084;16.958;2023-04-25T08:07:29;99410.09;;;11.54;100.00
54600;BME280;40500;51.084;16.958;2023-04-25T08:10:03;99407.65;;;11.73;100.00
54600;BME280;40500;51.084;16.958;2023-04-25T08:12:35;99410.89;;;11.85;100.00
54600;BME280;40500;51.084;16.958;2023-04-25T08:15:08;99406.57;;;11.88;100.00
54600;BME280;40500;51.084;16.958;2023-04-25T08:17:41;99409.21;;;11.87;100.00
54600;BME280;40500;51.084;16.958;2023-04-25T08:20:14;99409.83;;;11.85;100.00
54600;BME280;40500;51.084;16.958;2023-04-25T08:22:45;99417.77;;;11.84;100.00
54600;BME280;40500;51.084;16.958;2023-04-25T08:25:27;99417.02;;;11.85;100.00
54600;BME280;40500;51.084;16.958;2023-04-25T08:27:58;99421.92;;;11.85;100.00
54600;BME280;40500;51.084;16.958;2023-04-25T08:30:31;99418.18;;;11.83;100.00
54600;BME280;40500;51.084;16.958;2023-04-25T08:33:02;99419.11;;;11.76;100.00
54600;BME280;40500;51.084;16.958;2023-04-25T08:35:58;99426.94;;;11.68;100.00
54600;BME280;40500;51.084;16.958;2023-04-25T08:38:29;99427.44;;;11.74;100.00
54600;BME280;40500;51.084;16.958;2023-04-25T08:41:01;99429.46;;;11.81;100.00
54600;BME280;40500;51.084;16.958;2023-04-25T08:43:35;99427.75;;;11.90;100.00
54600;BME280;40500;51.084;16.958;2023-04-25T08:46:07;99429.85;;;12.00;100.00
54600;BME280;40500;51.084;16.958;2023-04-25T08:48:47;99429.31;;;12.14;100.00
54600;BME280;40500;51.084;16.958;2023-04-25T08:51:23;99430.77;;;12.22;100.00
54600;BME280;40500;51.084;16.958;2023-04-25T08:53:55;99425.94;;;12.43;100.00
54600;BME280;40500;51.084;16.958;2023-04-25T08:56:37;99422.10;;;12.69;100.00
54600;BME280;40500;51.084;16.958;2023-04-25T08:59:08;99413.54;;;12.89;100.00
54600;BME280;40500;51.084;16.958;2023-04-25T09:01:40;99418.77;;;12.90;100.00
54600;BME280;40500;51.084;16.958;2023-04-25T09:04:12;99417.70;;;12.98;100.00
54600;BME280;40500;51.084;16.958;2023-04-25T09:06:43;99419.71;;;13.01;100.00
54600;BME280;40500;51.084;16.958;2023-04-25T09:09:14;99423.40;;;13.01;100.00
54600;BME280;40500;51.084;16.958;2023-04-25T09:11:46;99424.83;;;13.05;100.00
54600;BME280;40500;51.084;16.958;2023-04-25T09:14:17;99427.69;;;13.16;100.00
54600;BME280;40500;51.084;16.958;2023-04-25T09:17:08;99426.53;;;13.19;100.00
54600;BME280;40500;51.084;16.958;2023-04-25T09:19:39;99420.02;;;13.19;100.00
54600;BME280;40500;51.084;16.958;2023-04-25T09:22:18;99423.86;;;13.28;100.00
54600;BME280;40500;51.084;16.958;2023-04-25T09:24:51;99427.41;;;13.32;100.00
54600;BME280;40500;51.084;16.958;2023-04-25T09:27:23;99425.98;;;13.24;100.00
54600;BME280;40500;51.084;16.958;2023-04-25T09:30:15;99427.27;;;13.26;100.00
54600;BME280;40500;51.084;16.958;2023-04-25T09:32:57;99428.71;;;13.30;100.00
54600;BME280;40500;51.084;16.958;2023-04-25T09:35:38;99435.09;;;13.29;100.00
54600;BME280;40500;51.084;16.958;2023-04-25T09:38:12;99432.80;;;13.29;100.00
54600;BME280;40500;51.084;16.958;2023-04-25T09:41:01;99430.59;;;13.27;100.00
54600;BME280;40500;51.084;16.958;2023-04-25T09:43:39;99432.25;;;13.30;100.00
54600;BME280;40500;51.084;16.958;2023-04-25T09:46:11;99436.11;;;13.25;100.00
54600;BME280;40500;51.084;16.958;2023-04-25T09:48:50;99427.88;;;13.20;100.00
54600;BME280;40500;51.084;16.958;2023-04-25T09:51:34;99429.93;;;13.17;100.00
54600;BME280;40500;51.084;16.958;2023-04-25T09:54:06;99429.91;;;13.14;100.00
54600;BME280;40500;51.084;16.958;2023-04-25T09:56:49;99431.47;;;13.14;100.00
54600;BME280;40500;51.084;16.958;2023-04-25T09:59:23;99432.55;;;13.18;100.00
54600;BME280;40500;51.084;16.958;2023-04-25T10:01:54;99434.36;;;13.21;100.00
54600;BME280;40500;51.084;16.958;2023-04-25T10:04:34;99434.51;;;13.17;100.00
54600;BME280;40500;51.084;16.958;2023-04-25T10:07:29;99438.41;;;12.99;100.00
54600;BME280;40500;51.084;16.958;2023-04-25T10:10:04;99437.76;;;12.77;100.00
54600;BME280;40500;51.084;16.958;2023-04-25T10:12:35;99438.56;;;12.70;100.00
54600;BME280;40500;51.084;16.958;2023-04-25T10:15:08;99442.20;;;12.75;100.00
54600;BME280;40500;51.084;16.958;2023-04-25T10:17:39;99436.52;;;12.81;100.00
54600;BME280;40500;51.084;16.958;2023-04-25T10:20:11;99439.16;;;12.81;100.00
54600;BME280;40500;51.084;16.958;2023-04-25T10:22:44;99435.79;;;12.82;100.00
54600;BME280;40500;51.084;16.958;2023-04-25T10:25:15;99435.66;;;13.02;100.00
54600;BME280;40500;51.084;16.958;2023-04-25T10:27:46;99432.65;;;13.24;100.00
54600;BME280;40500;51.084;16.958;2023-04-25T10:30:16;99431.82;;;13.22;100.00
54600;BME280;40500;51.084;16.958;2023-04-25T10:32:48;99432.14;;;13.19;100.00
54600;BME280;40500;51.084;16.958;2023-04-25T10:35:26;99429.25;;;13.17;100.00
54600;BME280;40500;51.084;16.958;2023-04-25T10:37:59;99425.83;;;13.11;100.00
54600;BME280;40500;51.084;16.958;2023-04-25T10:40:30;99423.79;;;13.09;100.00
54600;BME280;40500;51.084;16.958;2023-04-25T10:46:01;99420.95;;;13.35;100.00
54600;BME280;40500;51.084;16.958;2023-04-25T10:48:32;99411.54;;;13.66;100.00
54600;BME280;40500;51.084;16.958;2023-04-25T10:51:09;99407.63;;;13.86;100.00
54600;BME280;40500;51.084;16.958;2023-04-25T10:53:40;99410.41;;;13.86;100.00
54600;BME280;40500;51.084;16.958;2023-04-25T10:56:18;99413.98;;;13.74;100.00
54600;BME280;40500;51.084;16.958;2023-04-25T10:58:49;99416.10;;;13.62;100.00
54600;BME280;40500;51.084;16.958;2023-04-25T11:01:24;99417.02;;;13.57;100.00
54600;BME280;40500;51.084;16.958;2023-04-25T11:03:59;99416.32;;;13.64;100.00
54600;BME280;40500;51.084;16.958;2023-04-25T11:06:37;99411.89;;;13.66;100.00
54600;BME280;40500;51.084;16.958;2023-04-25T11:09:14;99403.89;;;13.91;100.00
54600;BME280;40500;51.084;16.958;2023-04-25T11:11:54;99403.57;;;14.21;100.00
54600;BME280;40500;51.084;16.958;2023-04-25T11:14:25;99408.17;;;14.50;100.00
54600;BME280;40500;51.084;16.958;2023-04-25T11:16:56;99409.47;;;14.71;100.00
54600;BME280;40500;51.084;16.958;2023-04-25T11:19:29;99410.09;;;14.80;100.00
54600;BME280;40500;51.084;16.958;2023-04-25T11:22:01;99414.86;;;14.73;100.00
54600;BME280;40500;51.084;16.958;2023-04-25T11:24:33;99413.89;;;14.48;100.00
54600;BME280;40500;51.084;16.958;2023-04-25T11:27:04;99412.69;;;14.25;100.00
54600;BME280;40500;51.084;16.958;2023-04-25T11:29:36;99413.71;;;14.11;100.00
54600;BME280;40500;51.084;16.958;2023-04-25T11:32:06;99421.64;;;14.03;100.00
54600;BME280;40500;51.084;16.958;2023-04-25T11:34:37;99420.27;;;13.98;100.00
54600;BME280;40500;51.084;16.958;2023-04-25T11:37:08;99421.25;;;14.00;100.00
54600;BME280;40500;51.084;16.958;2023-04-25T11:39:39;99419.13;;;14.00;100.00
54600;BME280;40500;51.084;16.958;2023-04-25T11:42:12;99417.48;;;13.98;100.00
54600;BME280;40500;51.084;16.958;2023-04-25T11:44:42;99419.61;;;14.01;100.00
54600;BME280;40500;51.084;16.958;2023-04-25T11:47:13;99423.95;;;14.10;100.00
54600;BME280;40500;51.084;16.958;2023-04-25T11:49:44;99420.37;;;14.19;100.00
54600;BME280;40500;51.084;16.958;2023-04-25T11:52:14;99420.30;;;14.32;100.00
54600;BME280;40500;51.084;16.958;2023-04-25T11:54:45;99415.74;;;14.46;100.00
54600;BME280;40500;51.084;16.958;2023-04-25T11:57:16;99415.24;;;14.53;100.00
54600;BME280;40500;51.084;16.958;2023-04-25T11:59:48;99416.08;;;14.50;100.00
54600;BME280;40500;51.084;16.958;2023-04-25T12:02:26;99417.53;;;14.42;100.00
54600;BME280;40500;51.084;16.958;2023-04-25T12:05:01;99420.99;;;14.36;100.00
54600;BME280;40500;51.084;16.958;2023-04-25T12:07:52;99426.36;;;14.27;100.00
54600;BME280;40500;51.084;16.958;2023-04-25T12:10:24;99424.79;;;14.22;100.00
54600;BME280;40500;51.084;16.958;2023-04-25T12:12:54;99426.73;;;14.15;100.00
54600;BME280;40500;51.084;16.958;2023-04-25T12:15:26;99423.30;;;14.09;100.00
54600;BME280;40500;51.084;16.958;2023-04-25T12:17:57;99423.36;;;14.08;100.00
54600;BME280;40500;51.084;16.958;2023-04-25T12:20:27;99425.34;;;14.10;100.00
54600;BME280;40500;51.084;16.958;2023-04-25T12:22:58;99422.17;;;14.10;100.00
54600;BME280;40500;51.084;16.958;2023-04-25T12:25:40;99426.36;;;14.11;100.00
54600;BME280;40500;51.084;16.958;2023-04-25T12:28:16;99425.70;;;14.11;100.00
54600;BME280;40500;51.084;16.958;2023-04-25T12:30:56;99430.74;;;14.23;100.00
54600;BME280;40500;51.084;16.958;2023-04-25T12:33:29;99423.73;;;16.60;100.00
54600;BME280;40500;51.084;16.958;2023-04-25T12:36:00;99413.00;;;19.48;100.00
54600;BME280;40500;51.084;16.958;2023-04-25T12:38:37;99418.48;;;18.68;100.00
54600;BME280;40500;51.084;16.958;2023-04-25T12:41:08;99420.45;;;18.04;100.00
54600;BME280;40500;51.084;16.958;2023-04-25T12:43:38;99425.52;;;17.40;98.96
54600;BME280;40500;51.084;16.958;2023-04-25T12:46:09;99425.95;;;16.62;100.00
54600;BME280;40500;51.084;16.958;2023-04-25T12:48:39;99422.54;;;15.89;100.00
54600;BME280;40500;51.084;16.958;2023-04-25T12:51:10;99424.92;;;15.43;100.00
54600;BME280;40500;51.084;16.958;2023-04-25T12:53:40;99428.44;;;15.15;100.00
54600;BME280;40500;51.084;16.958;2023-04-25T12:56:11;99426.36;;;15.04;100.00
54600;BME280;40500;51.084;16.958;2023-04-25T12:58:41;99423.63;;;15.13;100.00
54600;BME280;40500;51.084;16.958;2023-04-25T13:01:13;99421.70;;;15.91;100.00
54600;BME280;40500;51.084;16.958;2023-04-25T13:03:43;99420.92;;;16.82;100.00
54600;BME280;40500;51.084;16.958;2023-04-25T13:06:14;99418.71;;;16.81;100.00
54600;BME280;40500;51.084;16.958;2023-04-25T13:08:44;99418.52;;;16.62;100.00
54600;BME280;40500;51.084;16.958;2023-04-25T13:11:15;99413.36;;;16.66;100.00
54600;BME280;40500;51.084;16.958;2023-04-25T13:13:46;99416.98;;;16.77;100.00
54600;BME280;40500;51.084;16.958;2023-04-25T13:16:17;99406.14;;;19.66;98.80
54600;BME280;40500;51.084;16.958;2023-04-25T13:18:50;99394.84;;;22.58;85.33
54600;BME280;40500;51.084;16.958;2023-04-25T13:21:20;99407.41;;;21.55;81.00
54600;BME280;40500;51.084;16.958;2023-04-25T13:23:50;99408.02;;;20.76;78.10